Time;durP1;ratioP1;P1;durP2;ratioP2;P2;SDS_P1;SDS_P2;PMS_P1;PMS_P2;Temp;Humidity;BMP_temperature;BMP_pressure;BME280_temperature;BME280_humidity;BME280_pressure;Samples;Min_cycle;Max_cycle;Signal;HPM_P1;HPM_P2
2022/11/24 00:01:22;;;;;;;0.10;0.10;;;;;;;7.46;96.10;94666.97;4351419;32;20323;-61
2022/11/24 00:03:59;;;;;;;0.10;0.10;;;;;;;7.42;96.05;94675.75;4368890;32;20268;-60
2022/11/24 00:06:28;;;;;;;0.30;0.30;;;;;;;7.40;96.45;94669.97;4384439;32;20305;-60
2022/11/24 00:08:55;;;;;;;0.53;0.53;;;;;;;7.52;96.12;94678.22;4374507;32;20288;-60
2022/11/24 00:11:25;;;;;;;0.33;0.33;;;;;;;7.53;96.32;94677.94;4348491;32;20270;-60
2022/11/24 00:13:52;;;;;;;0.50;0.50;;;;;;;7.56;95.42;94687.91;4352439;32;20267;-60
2022/11/24 00:16:20;;;;;;;0.40;0.40;;;;;;;7.47;95.20;94683.59;4371024;32;20316;-60
2022/11/24 00:18:48;;;;;;;0.10;0.10;;;;;;;7.49;95.24;94695.41;4376150;32;20285;-60
2022/11/24 00:21:16;;;;;;;0.30;0.30;;;;;;;7.47;95.39;94689.66;4356469;32;20283;-60
2022/11/24 00:23:48;;;;;;;0.00;0.00;;;;;;;7.49;94.96;94698.03;4370086;32;20294;-60
2022/11/24 00:26:29;;;;;;;0.57;0.50;;;;;;;7.39;95.13;94687.66;4374318;32;20284;-60
2022/11/24 00:29:00;;;;;;;0.20;0.20;;;;;;;7.49;95.19;94682.22;4342029;32;20280;-60
2022/11/24 00:31:27;;;;;;;0.10;0.10;;;;;;;7.59;94.67;94692.62;4371226;32;20286;-60
2022/11/24 00:33:55;;;;;;;0.20;0.20;;;;;;;7.56;94.25;94693.19;4368883;32;20334;-60
2022/11/24 00:36:23;;;;;;;0.10;0.10;;;;;;;7.49;94.75;94682.22;4371370;32;20292;-60
2022/11/24 00:39:01;;;;;;;0.20;0.20;;;;;;;7.57;94.00;94709.81;4359424;32;20332;-59
2022/11/24 00:41:28;;;;;;;0.10;0.10;;;;;;;7.58;94.10;94706.09;4360405;32;20347;-60
2022/11/24 00:43:54;;;;;;;0.10;0.10;;;;;;;7.67;93.72;94709.66;4379059;32;20315;-60
2022/11/24 00:46:21;;;;;;;0.13;0.13;;;;;;;7.65;93.51;94724.22;4383472;32;20284;-60
2022/11/24 00:48:48;;;;;;;0.20;0.20;;;;;;;7.59;93.71;94729.56;4367184;32;20295;-60
2022/11/24 00:51:16;;;;;;;0.73;0.43;;;;;;;7.49;94.10;94729.72;4364418;32;20354;-60
2022/11/24 00:53:42;;;;;;;0.27;0.27;;;;;;;7.57;93.92;94731.72;4361911;32;20313;-60
2022/11/24 00:56:08;;;;;;;0.53;0.53;;;;;;;7.58;94.04;94733.28;4386927;32;20338;-60
2022/11/24 00:58:34;;;;;;;0.00;0.00;;;;;;;7.55;93.69;94736.50;4372560;32;20249;-60
2022/11/24 01:01:27;;;;;;;0.17;0.17;;;;;;;7.59;93.50;94742.75;4376502;32;20319;-60
2022/11/24 01:03:54;;;;;;;0.50;0.50;;;;;;;7.51;93.46;94748.69;4372332;32;20285;-60
2022/11/24 01:06:25;;;;;;;0.40;0.40;;;;;;;7.56;93.34;94756.53;4354313;32;20292;-60
2022/11/24 01:08:51;;;;;;;0.10;0.10;;;;;;;7.55;93.90;94765.50;4373149;32;20291;-60
2022/11/24 01:11:23;;;;;;;0.10;0.10;;;;;;;7.75;92.86;94774.19;4377946;32;20287;-60
2022/11/24 01:13:56;;;;;;;1.23;0.60;;;;;;;7.55;93.92;94765.50;4336282;32;20328;-60
2022/11/24 01:16:24;;;;;;;0.27;0.27;;;;;;;7.58;93.96;94772.87;4367126;32;20289;-60
2022/11/24 01:18:51;;;;;;;0.30;0.30;;;;;;;7.56;93.16;94772.37;4370278;32;20289;-61
2022/11/24 01:21:18;;;;;;;0.30;0.30;;;;;;;7.45;93.53;94773.59;4337734;32;20280;-60
2022/11/24 01:23:43;;;;;;;0.47;0.47;;;;;;;7.63;93.59;94776.50;4369001;32;20316;-60
2022/11/24 01:26:13;;;;;;;0.10;0.10;;;;;;;7.43;93.79;94781.03;4378096;32;20284;-61
2022/11/24 01:28:42;;;;;;;1.73;0.37;;;;;;;7.54;93.13;94795.63;4371020;32;20215;-63
2022/11/24 01:31:08;;;;;;;0.10;0.10;;;;;;;7.54;92.96;94795.63;4346048;32;20289;-61
2022/11/24 01:33:35;;;;;;;0.57;0.57;;;;;;;7.53;93.42;94798.53;4351342;32;20360;-63
2022/11/24 01:36:02;;;;;;;0.47;0.47;;;;;;;7.53;92.70;94807.25;4364829;32;20274;-60
2022/11/24 01:38:28;;;;;;;0.20;0.20;;;;;;;7.64;92.53;94799.19;4373143;32;20525;-60
2022/11/24 01:41:01;;;;;;;0.10;0.10;;;;;;;7.48;93.37;94796.75;4359428;32;20374;-60
2022/11/24 01:43:26;;;;;;;0.30;0.30;;;;;;;7.42;93.14;94808.47;4373216;32;20181;-60
2022/11/24 01:45:53;;;;;;;0.87;0.37;;;;;;;7.63;93.03;94800.25;4354829;32;20277;-60
2022/11/24 01:48:32;;;;;;;0.43;0.40;;;;;;;7.45;92.64;94805.28;4370706;32;20224;-60
2022/11/24 01:51:13;;;;;;;0.00;0.00;;;;;;;7.44;93.92;94805.56;4378342;32;20272;-60
2022/11/24 01:53:42;;;;;;;0.30;0.30;;;;;;;7.48;93.19;94812.59;4368168;32;20273;-61
2022/11/24 01:56:11;;;;;;;0.40;0.30;;;;;;;7.42;93.45;94816.38;4376007;32;20310;-60
2022/11/24 01:58:42;;;;;;;0.50;0.50;;;;;;;7.57;92.59;94821.44;4365773;32;20281;-60
2022/11/24 02:01:08;;;;;;;0.00;0.00;;;;;;;7.48;93.13;94827.66;4371956;32;20276;-61
2022/11/24 02:03:38;;;;;;;0.33;0.33;;;;;;;7.36;92.96;94838.63;4361102;32;20276;-60
2022/11/24 02:06:13;;;;;;;0.57;0.57;;;;;;;7.56;92.64;94840.19;4333530;32;20189;-61
2022/11/24 02:09:01;;;;;;;1.17;0.53;;;;;;;7.61;92.29;94836.72;4362861;32;20284;-61
2022/11/24 02:11:32;;;;;;;0.00;0.00;;;;;;;7.62;91.97;94846.19;4372998;32;20318;-60
2022/11/24 02:13:59;;;;;;;0.00;0.00;;;;;;;7.53;92.19;94846.03;4382815;32;20301;-61
2022/11/24 02:16:25;;;;;;;0.00;0.00;;;;;;;7.41;92.08;94857.03;4387525;32;20276;-60
2022/11/24 02:18:53;;;;;;;0.17;0.17;;;;;;;7.42;92.52;94852.53;4332744;32;20304;-60
2022/11/24 02:21:21;;;;;;;0.93;0.43;;;;;;;7.47;92.11;94852.47;4377812;32;20391;-60
2022/11/24 02:24:24;;;;;;;0.00;0.00;;;;;;;7.36;92.43;94849.19;4339167;32;20289;-60
2022/11/24 02:26:51;;;;;;;0.10;0.10;;;;;;;7.40;92.36;94862.59;4364156;32;20284;-61
2022/11/24 02:29:21;;;;;;;0.10;0.10;;;;;;;7.41;92.08;94859.69;4343409;32;20298;-61
2022/11/24 02:32:01;;;;;;;14.27;0.50;;;;;;;7.29;92.32;94867.19;4345736;32;20285;-60
2022/11/24 02:34:28;;;;;;;0.13;0.13;;;;;;;7.37;92.79;94863.94;4352413;32;20273;-60
2022/11/24 02:36:56;;;;;;;0.40;0.40;;;;;;;7.16;93.05;94868.69;4335036;32;20300;-60
2022/11/24 02:39:22;;;;;;;0.10;0.10;;;;;;;7.26;93.27;94873.06;4366416;32;20276;-60
2022/11/24 02:41:59;;;;;;;0.17;0.17;;;;;;;7.22;93.14;94879.97;4388960;32;20284;-60
2022/11/24 02:44:31;;;;;;;0.10;0.10;;;;;;;7.28;92.94;94876.19;4382145;32;20302;-60
2022/11/24 02:47:10;;;;;;;0.00;0.00;;;;;;;7.30;92.79;94881.19;4366416;32;20308;-60
2022/11/24 02:49:36;;;;;;;0.13;0.13;;;;;;;7.36;92.58;94882.69;4387255;32;20287;-60
2022/11/24 02:52:03;;;;;;;0.30;0.30;;;;;;;7.41;92.11;94888.69;4356599;32;20299;-61
2022/11/24 02:54:29;;;;;;;0.00;0.00;;;;;;;7.40;92.14;94894.25;4378511;32;20345;-60
2022/11/24 02:56:55;;;;;;;0.00;0.00;;;;;;;7.35;92.07;94887.19;4374153;32;20280;-60
2022/11/24 02:59:22;;;;;;;0.10;0.10;;;;;;;7.42;92.53;94889.50;4366177;32;20184;-60
2022/11/24 03:01:47;;;;;;;0.00;0.00;;;;;;;7.40;92.25;94894.25;4352849;32;20294;-60
2022/11/24 03:04:13;;;;;;;0.33;0.33;;;;;;;7.49;91.94;94898.59;4347378;32;20286;-60
2022/11/24 03:06:41;;;;;;;0.00;0.00;;;;;;;7.36;92.20;94901.94;4349361;32;20177;-60
2022/11/24 03:09:09;;;;;;;0.23;0.23;;;;;;;7.46;92.08;94888.66;4360623;32;20314;-60
2022/11/24 03:11:37;;;;;;;0.00;0.00;;;;;;;7.59;91.38;94900.34;4319756;32;20285;-60
2022/11/24 03:14:04;;;;;;;0.30;0.30;;;;;;;7.59;91.79;94897.69;4359255;32;20295;-60
2022/11/24 03:16:29;;;;;;;0.10;0.10;;;;;;;7.64;91.32;94905.56;4373718;32;20375;-60
2022/11/24 03:18:55;;;;;;;0.30;0.30;;;;;;;7.63;91.48;94900.56;4360954;32;20280;-60
2022/11/24 03:21:21;;;;;;;0.20;0.20;;;;;;;7.51;91.54;94909.66;4369658;32;20185;-60
2022/11/24 03:23:49;;;;;;;0.17;0.17;;;;;;;7.36;92.11;94914.34;4383303;32;20243;-60
2022/11/24 03:26:17;;;;;;;0.00;0.00;;;;;;;7.34;92.90;94912.00;4373684;32;20280;-60
2022/11/24 03:28:48;;;;;;;0.00;0.00;;;;;;;7.51;92.26;94917.59;4343454;32;20193;-60
2022/11/24 03:31:15;;;;;;;0.00;0.00;;;;;;;7.52;92.09;94918.38;4347085;32;20280;-60
2022/11/24 03:33:40;;;;;;;0.00;0.00;;;;;;;7.49;91.95;94922.34;4354709;32;20321;-60
2022/11/24 03:36:06;;;;;;;0.67;0.20;;;;;;;7.52;91.71;94921.00;4356430;32;20280;-60
2022/11/24 03:38:32;;;;;;;0.30;0.30;;;;;;;7.50;91.89;94929.22;4351734;32;20184;-60
2022/11/24 03:40:59;;;;;;;0.00;0.00;;;;;;;7.54;92.18;94929.44;4351172;32;20281;-60
2022/11/24 03:43:24;;;;;;;1.20;0.20;;;;;;;7.44;92.18;94933.00;4388971;32;20337;-60
2022/11/24 03:45:51;;;;;;;0.00;0.00;;;;;;;7.43;93.21;94933.28;4379712;32;20356;-60
2022/11/24 03:48:20;;;;;;;0.10;0.10;;;;;;;7.61;91.96;94937.00;4369903;32;20192;-60
2022/11/24 03:51:11;;;;;;;1.07;0.30;;;;;;;7.50;92.43;94931.84;4334614;32;20296;-60
2022/11/24 03:53:37;;;;;;;0.20;0.20;;;;;;;7.54;92.51;94932.06;4382138;32;20276;-60
2022/11/24 03:56:03;;;;;;;0.10;0.10;;;;;;;7.59;92.14;94939.94;4367435;32;20326;-60
2022/11/24 03:58:29;;;;;;;0.00;0.00;;;;;;;7.72;91.74;94941.06;4366733;32;20181;-61
2022/11/24 04:00:56;;;;;;;17.17;0.50;;;;;;;7.53;92.16;94944.47;4368190;32;20217;-60
2022/11/24 04:03:23;;;;;;;0.53;0.53;;;;;;;7.53;92.27;94944.47;4365944;32;20346;-60
2022/11/24 04:05:56;;;;;;;0.00;0.00;;;;;;;7.55;92.32;94944.19;4375897;32;20360;-60
2022/11/24 04:08:22;;;;;;;0.10;0.10;;;;;;;7.54;92.08;94948.69;4366123;32;20265;-60
2022/11/24 04:10:50;;;;;;;0.00;0.00;;;;;;;7.54;92.75;94946.06;4359424;32;20303;-60
2022/11/24 04:13:20;;;;;;;0.17;0.17;;;;;;;7.45;92.78;94949.63;4358555;32;20330;-60
2022/11/24 04:15:46;;;;;;;0.00;0.00;;;;;;;7.45;93.04;94950.41;4364851;32;20281;-60
2022/11/24 04:18:13;;;;;;;0.20;0.20;;;;;;;7.44;93.37;94954.09;4373789;32;20291;-60
2022/11/24 04:20:40;;;;;;;0.00;0.00;;;;;;;7.34;92.96;94956.84;4361097;32;20281;-61
2022/11/24 04:23:06;;;;;;;0.10;0.10;;;;;;;7.47;93.42;94952.75;4368361;32;20268;-60
2022/11/24 04:25:31;;;;;;;0.00;0.00;;;;;;;7.58;92.53;94959.47;4332130;32;20276;-60
2022/11/24 04:27:58;;;;;;;0.50;0.43;;;;;;;7.41;93.31;94948.59;4389092;32;20310;-60
2022/11/24 04:30:26;;;;;;;0.00;0.00;;;;;;;7.43;93.21;94960.44;4356307;32;20224;-60
2022/11/24 04:32:52;;;;;;;0.03;0.03;;;;;;;7.35;93.18;94958.44;4353678;32;20280;-60
2022/11/24 04:35:19;;;;;;;0.00;0.00;;;;;;;7.38;93.40;94972.91;4389313;32;20290;-60
2022/11/24 04:37:44;;;;;;;0.00;0.00;;;;;;;7.47;93.00;94966.75;4375325;32;20276;-60
2022/11/24 04:40:11;;;;;;;0.00;0.00;;;;;;;7.59;92.36;94972.38;4351312;32;20331;-60
2022/11/24 04:42:37;;;;;;;0.10;0.10;;;;;;;7.47;92.43;94974.66;4369430;32;20208;-60
2022/11/24 04:45:04;;;;;;;0.03;0.03;;;;;;;7.49;92.72;94974.34;4365150;32;20268;-60
2022/11/24 04:47:30;;;;;;;1.63;0.43;;;;;;;7.57;92.52;94973.75;4366399;32;20372;-60
2022/11/24 04:49:57;;;;;;;0.20;0.20;;;;;;;7.61;92.04;94979.25;4340383;32;20295;-60
2022/11/24 04:52:24;;;;;;;0.10;0.10;;;;;;;7.62;92.16;94975.53;4368189;32;20284;-60
2022/11/24 04:54:50;;;;;;;0.10;0.10;;;;;;;7.57;92.06;94976.38;4370475;32;20343;-60
2022/11/24 04:57:22;;;;;;;0.90;0.20;;;;;;;7.75;91.52;94980.91;4348878;32;20289;-60
2022/11/24 04:59:54;;;;;;;0.00;0.00;;;;;;;7.73;91.61;94985.69;4356458;32;20192;-60
2022/11/24 05:02:20;;;;;;;0.00;0.00;;;;;;;7.73;91.46;94990.16;4370046;32;20338;-60
2022/11/24 05:04:45;;;;;;;0.10;0.10;;;;;;;7.83;91.80;95003.25;4356756;32;20323;-60
2022/11/24 05:07:12;;;;;;;0.20;0.20;;;;;;;7.73;91.64;94996.25;4367714;32;20289;-60
2022/11/24 05:10:33;;;;;;;0.00;0.00;;;;;;;7.58;92.41;94996.44;4353497;32;20261;-60
2022/11/24 05:12:30;;;;;;;0.20;0.20;;;;;;;7.70;92.43;95003.94;4386075;32;20276;-60
2022/11/24 05:14:58;;;;;;;0.10;0.10;;;;;;;7.76;92.40;95006.25;4372788;32;20318;-60
2022/11/24 05:17:28;;;;;;;0.00;0.00;;;;;;;7.70;92.37;95009.22;4368704;32;20332;-60
2022/11/24 05:19:53;;;;;;;0.10;0.10;;;;;;;7.75;92.58;95014.44;4378577;32;20299;-60
2022/11/24 05:22:21;;;;;;;0.40;0.40;;;;;;;7.85;91.65;95011.69;4387690;32;20363;-60
2022/11/24 05:24:47;;;;;;;0.20;0.20;;;;;;;7.72;92.15;95021.06;4366550;32;20205;-60
2022/11/24 05:27:14;;;;;;;0.17;0.17;;;;;;;7.79;91.90;95018.88;4371762;32;20280;-61
2022/11/24 05:29:41;;;;;;;0.20;0.20;;;;;;;7.73;92.32;95032.41;4388246;32;20192;-61
2022/11/24 05:32:07;;;;;;;2.53;0.27;;;;;;;7.75;92.47;95031.06;4374042;32;20288;-60
2022/11/24 05:34:33;;;;;;;0.20;0.20;;;;;;;7.86;92.10;95035.16;4341352;32;20281;-59
2022/11/24 05:37:02;;;;;;;0.10;0.10;;;;;;;7.77;92.48;95038.72;4366210;32;20371;-60
2022/11/24 05:39:49;;;;;;;0.10;0.10;;;;;;;7.77;92.70;95041.34;4376031;32;20199;-60
2022/11/24 05:45:00;;;;;;;0.40;0.40;;;;;;;7.72;93.23;95044.81;4374178;32;20408;-60
2022/11/24 05:47:27;;;;;;;4.50;0.53;;;;;;;7.63;93.48;95041.25;4375191;32;20268;-60
2022/11/24 05:49:52;;;;;;;0.10;0.10;;;;;;;7.74;93.17;95045.34;4358823;32;20289;-60
2022/11/24 05:52:18;;;;;;;2.03;0.73;;;;;;;7.77;93.02;95057.19;4372214;32;20276;-60
2022/11/24 05:54:44;;;;;;;0.10;0.10;;;;;;;7.59;93.33;95050.78;4333385;32;20220;-60
2022/11/24 05:57:13;;;;;;;0.10;0.10;;;;;;;7.68;93.18;95046.47;4370409;32;20188;-60
2022/11/24 05:59:39;;;;;;;0.20;0.20;;;;;;;7.65;93.24;95049.69;4371259;32;20305;-64
2022/11/24 06:02:04;;;;;;;0.20;0.20;;;;;;;7.68;93.22;95056.25;4338559;32;20293;-60
2022/11/24 06:04:30;;;;;;;0.17;0.17;;;;;;;7.69;93.17;95057.81;4339441;32;20227;-60
2022/11/24 06:06:56;;;;;;;0.20;0.20;;;;;;;7.71;92.89;95059.09;4354135;32;20189;-60
2022/11/24 06:09:23;;;;;;;0.10;0.10;;;;;;;7.72;92.44;95065.16;4361211;32;20308;-60
2022/11/24 06:11:48;;;;;;;0.73;0.73;;;;;;;7.81;92.23;95068.75;4348254;32;20197;-60
2022/11/24 06:14:14;;;;;;;0.47;0.47;;;;;;;7.93;91.59;95071.78;4363790;32;20319;-60
2022/11/24 06:16:42;;;;;;;0.20;0.20;;;;;;;8.11;91.08;95065.75;4346840;32;20225;-63
2022/11/24 06:19:14;;;;;;;0.30;0.30;;;;;;;8.12;90.49;95075.25;4342111;32;20207;-60
2022/11/24 06:21:40;;;;;;;0.20;0.20;;;;;;;8.12;91.09;95077.09;4353677;32;20276;-60
2022/11/24 06:24:05;;;;;;;0.03;0.03;;;;;;;8.12;90.88;95088.44;4350289;32;20324;-59
2022/11/24 06:26:32;;;;;;;0.53;0.43;;;;;;;7.84;91.24;95084.84;4334441;32;20181;-60
2022/11/24 06:28:57;;;;;;;0.63;0.63;;;;;;;7.78;91.54;95090.44;4356782;32;20227;-60
2022/11/24 06:31:23;;;;;;;0.70;0.33;;;;;;;7.95;91.33;95090.78;4368157;32;20284;-59
2022/11/24 06:33:49;;;;;;;0.50;0.50;;;;;;;7.92;91.62;95089.47;4324720;32;20711;-60
2022/11/24 06:36:17;;;;;;;1.40;0.80;;;;;;;8.00;91.09;95093.37;4357390;32;20177;-60
2022/11/24 06:38:45;;;;;;;3.67;0.70;;;;;;;7.95;91.17;95093.41;4360270;32;20285;-60
2022/11/24 06:41:12;;;;;;;0.37;0.37;;;;;;;8.00;91.52;95092.59;4356510;32;20338;-60
2022/11/24 06:43:38;;;;;;;0.60;0.60;;;;;;;7.98;91.17;95100.00;4341999;32;20284;-60
2022/11/24 06:46:08;;;;;;;1.70;0.73;;;;;;;7.92;91.18;95109.81;4329292;32;20316;-59
2022/11/24 06:48:34;;;;;;;0.27;0.27;;;;;;;7.90;91.12;95106.69;4381115;32;20303;-60
2022/11/24 06:51:02;;;;;;;0.43;0.43;;;;;;;7.91;91.17;95103.75;4358696;32;20352;-60
2022/11/24 06:53:36;;;;;;;0.43;0.43;;;;;;;7.92;91.40;95121.16;4371552;32;20280;-60
2022/11/24 06:56:03;;;;;;;0.60;0.60;;;;;;;7.92;91.17;95112.47;4370251;32;20362;-59
2022/11/24 06:58:33;;;;;;;0.40;0.40;;;;;;;7.94;90.94;95115.63;4372116;32;20306;-60
2022/11/24 07:01:00;;;;;;;0.37;0.37;;;;;;;7.88;90.84;95117.53;4384688;32;20281;-60
2022/11/24 07:03:25;;;;;;;2.33;0.37;;;;;;;7.96;90.78;95118.75;4369837;32;20331;-59
2022/11/24 07:05:57;;;;;;;2.37;0.37;;;;;;;7.96;90.86;95120.63;4376631;32;20307;-60
2022/11/24 07:08:23;;;;;;;1.60;1.20;;;;;;;7.98;90.50;95116.63;4368283;32;20184;-44
2022/11/24 07:10:49;;;;;;;1.00;1.00;;;;;;;10.63;100.00;95114.72;4354508;32;20303;-42
2022/11/24 07:13:15;;;;;;;10.33;1.17;;;;;;;11.70;100.00;95109.56;4371326;32;20239;-43
2022/11/24 07:15:42;;;;;;;5.27;0.70;;;;;;;11.89;97.35;95114.66;4354146;32;20192;-45
2022/11/24 07:18:13;;;;;;;0.83;0.83;;;;;;;12.45;88.64;95118.47;4362177;32;20243;-44
2022/11/24 07:20:39;;;;;;;1.33;1.03;;;;;;;12.94;83.47;95120.72;4373241;32;20207;-43
2022/11/24 07:23:06;;;;;;;0.70;0.70;;;;;;;13.12;78.29;95115.41;4351870;32;20230;-44
2022/11/24 07:25:32;;;;;;;1.43;0.77;;;;;;;13.38;78.57;95116.19;4372924;32;20188;-46
2022/11/24 07:28:00;;;;;;;0.40;0.40;;;;;;;13.55;75.28;95129.50;4347435;32;20188;-42
2022/11/24 07:30:27;;;;;;;7.60;1.23;;;;;;;13.70;76.86;95125.56;4370501;32;20181;-43
2022/11/24 07:32:58;;;;;;;0.47;0.47;;;;;;;13.73;73.45;95132.91;4362070;32;20215;-43
2022/11/24 07:35:25;;;;;;;0.20;0.20;;;;;;;13.68;70.70;95128.53;4379002;32;20220;-43
2022/11/24 07:37:55;;;;;;;0.60;0.60;;;;;;;13.56;70.98;95125.72;4367891;32;20184;-42
2022/11/24 07:40:21;;;;;;;0.93;0.63;;;;;;;13.66;71.03;95129.97;4375890;32;20188;-42
2022/11/24 07:42:47;;;;;;;0.43;0.43;;;;;;;13.62;70.47;95121.81;4365701;32;20195;-45
2022/11/24 07:45:18;;;;;;;0.93;0.43;;;;;;;13.67;70.27;95126.19;4373204;32;20194;-42
2022/11/24 07:47:45;;;;;;;1.03;0.73;;;;;;;13.65;69.94;95136.38;4371773;32;20193;-42
2022/11/24 07:50:11;;;;;;;0.40;0.40;;;;;;;13.62;68.97;95137.00;4312451;32;20193;-43
2022/11/24 07:52:37;;;;;;;0.20;0.20;;;;;;;13.54;69.34;95140.47;4337226;32;20190;-43
2022/11/24 07:55:04;;;;;;;0.40;0.40;;;;;;;13.46;69.80;95136.72;4362524;32;20208;-42
2022/11/24 07:57:29;;;;;;;0.70;0.70;;;;;;;13.45;69.80;95145.03;4372388;32;20226;-43
2022/11/24 07:59:55;;;;;;;0.80;0.60;;;;;;;13.49;68.45;95137.97;4370384;32;20242;-61
2022/11/24 08:02:21;;;;;;;1.80;0.70;;;;;;;12.07;67.18;95139.44;4369175;32;20181;-62
2022/11/24 08:04:48;;;;;;;0.30;0.30;;;;;;;11.21;70.00;95142.38;4351690;32;20264;-62
2022/11/24 08:07:14;;;;;;;0.67;0.67;;;;;;;10.24;74.16;95139.13;4379341;32;20197;-60
2022/11/24 08:09:39;;;;;;;1.93;1.23;;;;;;;9.69;77.35;95135.63;4372724;32;20187;-68
2022/11/24 08:12:05;;;;;;;0.20;0.20;;;;;;;9.26;79.16;95129.72;4358524;32;20212;-61
2022/11/24 08:14:33;;;;;;;1.80;0.40;;;;;;;8.80;80.51;95126.97;4342140;32;20283;-60
2022/11/24 08:16:59;;;;;;;3.27;0.93;;;;;;;8.96;80.63;95126.47;4361839;32;20199;-61
2022/11/24 08:19:24;;;;;;;5.30;1.43;;;;;;;8.86;81.11;95126.62;4370633;32;20188;-62
2022/11/24 08:21:50;;;;;;;0.97;0.50;;;;;;;9.00;80.65;95131.97;4376556;32;20228;-60
2022/11/24 08:24:17;;;;;;;0.83;0.83;;;;;;;8.89;81.14;95130.56;4375327;32;20184;-62
2022/11/24 08:26:42;;;;;;;0.47;0.47;;;;;;;8.72;81.49;95123.13;4368492;32;20204;-61
2022/11/24 08:29:09;;;;;;;3.30;1.10;;;;;;;8.78;81.51;95129.91;4348926;32;20185;-60
2022/11/24 08:31:38;;;;;;;2.17;0.60;;;;;;;8.57;82.40;95124.13;4370552;32;20196;-60
2022/11/24 08:34:05;;;;;;;0.30;0.30;;;;;;;8.68;81.78;95132.72;4349068;32;20204;-60
2022/11/24 08:36:36;;;;;;;0.83;0.83;;;;;;;8.77;81.61;95136.28;4317465;32;20370;-60
2022/11/24 08:39:02;;;;;;;0.37;0.37;;;;;;;8.68;82.53;95130.06;4368371;32;20329;-60
2022/11/24 08:41:33;;;;;;;1.93;1.30;;;;;;;8.53;82.09;95132.91;4365498;32;20346;-60
2022/11/24 08:43:58;;;;;;;0.70;0.70;;;;;;;8.56;82.67;95133.13;4370007;32;20284;-61
2022/11/24 08:46:23;;;;;;;0.67;0.47;;;;;;;8.74;82.33;95131.53;4350713;32;20344;-60
2022/11/24 08:48:53;;;;;;;0.77;0.77;;;;;;;8.81;82.09;95147.84;4366069;32;20216;-60
2022/11/24 08:51:26;;;;;;;0.50;0.50;;;;;;;8.75;81.80;95146.34;4330376;32;20242;-59
2022/11/24 08:53:57;;;;;;;0.23;0.23;;;;;;;9.10;83.47;95136.34;4366957;32;20277;-60
2022/11/24 08:56:24;;;;;;;3.13;1.40;;;;;;;9.15;79.92;95133.59;4353796;32;20283;-60
2022/11/24 08:58:50;;;;;;;2.70;0.87;;;;;;;9.13;79.87;95141.84;4390516;32;20219;-61
2022/11/24 09:01:17;;;;;;;0.30;0.20;;;;;;;9.20;79.71;95136.97;4344685;32;20188;-60
2022/11/24 09:03:46;;;;;;;0.27;0.20;;;;;;;9.41;78.56;95129.47;4328373;32;20212;-60
2022/11/24 09:06:13;;;;;;;0.10;0.10;;;;;;;9.38;79.12;95130.06;4370933;32;20180;-61
2022/11/24 09:08:39;;;;;;;0.60;0.37;;;;;;;9.51;79.48;95129.31;4377694;32;20211;-61
2022/11/24 09:11:12;;;;;;;0.83;0.63;;;;;;;9.54;79.19;95134.03;4385191;32;20183;-60
2022/11/24 09:13:48;;;;;;;0.60;0.60;;;;;;;9.61;76.37;95136.28;4378300;32;20184;-61
2022/11/24 09:16:19;;;;;;;0.37;0.37;;;;;;;9.81;77.46;95135.16;4357323;32;20180;-61
2022/11/24 09:18:46;;;;;;;2.67;1.37;;;;;;;9.89;76.82;95132.63;4380007;32;20284;-61
2022/11/24 09:21:13;;;;;;;9.50;0.93;;;;;;;9.94;75.38;95132.53;4386037;32;20249;-61
2022/11/24 09:23:39;;;;;;;0.40;0.40;;;;;;;9.71;75.98;95143.28;4376130;32;20181;-60
2022/11/24 09:26:11;;;;;;;0.80;0.80;;;;;;;9.61;76.76;95137.06;4368404;32;20251;-61
2022/11/24 09:28:37;;;;;;;0.43;0.43;;;;;;;9.68;75.29;95146.50;4356967;32;20201;-61
2022/11/24 09:31:06;;;;;;;6.23;1.20;;;;;;;9.97;75.19;95139.09;4357794;32;20207;-60
2022/11/24 09:33:32;;;;;;;3.20;0.67;;;;;;;10.00;74.75;95144.59;4330635;32;20299;-60
2022/11/24 09:36:00;;;;;;;0.87;0.87;;;;;;;10.02;75.44;95140.84;4336076;32;20180;-60
2022/11/24 09:38:28;;;;;;;0.57;0.57;;;;;;;9.93;74.82;95143.41;4353011;32;20203;-59
2022/11/24 09:40:54;;;;;;;0.90;0.83;;;;;;;10.11;74.41;95144.41;4379433;32;20208;-59
2022/11/24 09:43:44;;;;;;;1.60;0.50;;;;;;;10.01;75.01;95137.41;4361495;32;20188;-58
2022/11/24 09:46:32;;;;;;;0.20;0.20;;;;;;;10.24;76.10;95136.47;4371933;32;20232;-60
2022/11/24 09:49:01;;;;;;;0.33;0.33;;;;;;;10.38;73.61;95146.31;4364901;32;20204;-62
2022/11/24 09:51:31;;;;;;;0.43;0.43;;;;;;;10.16;73.55;95150.41;4372492;32;20211;-60
2022/11/24 09:54:18;;;;;;;0.77;0.77;;;;;;;10.45;73.34;95150.12;4366935;32;20189;-60
2022/11/24 09:56:46;;;;;;;0.30;0.30;;;;;;;10.29;74.75;95140.91;4368080;32;20232;-62
2022/11/24 09:59:17;;;;;;;0.30;0.30;;;;;;;10.21;73.64;95145.00;4365828;32;20222;-60
2022/11/24 10:01:45;;;;;;;0.70;0.70;;;;;;;10.22;72.99;95141.28;4348303;32;20249;-59
2022/11/24 10:04:19;;;;;;;0.57;0.43;;;;;;;10.26;74.42;95150.22;4362042;32;20185;-61
2022/11/24 10:07:12;;;;;;;0.80;0.80;;;;;;;10.27;73.18;95154.44;4354514;32;20242;-43
2022/11/24 10:09:49;;;;;;;1.67;1.20;;;;;;;12.31;97.66;95137.97;4362637;32;20185;-43
2022/11/24 10:13:00;;;;;;;0.50;0.50;;;;;;;12.04;76.53;95149.62;4375601;32;20193;-42
2022/11/24 10:15:40;;;;;;;0.60;0.60;;;;;;;12.22;69.13;95152.34;4357741;32;20184;-45
2022/11/24 10:18:08;;;;;;;1.90;0.43;;;;;;;13.03;73.08;95160.69;4312381;32;20189;-43
2022/11/24 10:21:11;;;;;;;5.33;0.93;;;;;;;13.89;70.07;95159.88;4373988;32;20185;-43
2022/11/24 10:24:01;;;;;;;0.20;0.20;;;;;;;13.92;65.24;95160.00;4377134;32;20192;-45
2022/11/24 10:26:37;;;;;;;2.77;0.67;;;;;;;13.77;65.21;95173.84;4368967;32;20210;-58
2022/11/24 10:29:29;;;;;;;0.17;0.17;;;;;;;12.58;64.37;95186.75;4355373;32;20271;-58
2022/11/24 10:31:56;;;;;;;0.57;0.57;;;;;;;11.40;70.25;95180.16;4352776;32;20259;-58
2022/11/24 10:34:28;;;;;;;1.07;0.37;;;;;;;10.27;77.29;95191.56;4357190;32;20185;-58
2022/11/24 10:37:24;;;;;;;0.53;0.53;;;;;;;9.72;80.80;95189.88;4333057;32;20239;-58
2022/11/24 10:40:11;;;;;;;7.43;0.93;;;;;;;9.64;81.72;95197.41;4337167;32;20295;-58
2022/11/24 10:42:37;;;;;;;0.50;0.50;;;;;;;9.67;82.02;95198.69;4351172;32;20241;-58
2022/11/24 10:45:21;;;;;;;0.30;0.30;;;;;;;9.53;83.29;95201.31;4366739;32;20268;-58
2022/11/24 10:47:48;;;;;;;0.00;0.00;;;;;;;9.41;85.28;95208.91;4376555;32;20185;-58
2022/11/24 10:50:20;;;;;;;0.10;0.10;;;;;;;8.98;86.26;95208.19;4365169;32;20195;-58
2022/11/24 10:53:24;;;;;;;0.73;0.40;;;;;;;9.02;86.67;95216.34;4371219;32;20212;-58
2022/11/24 10:56:03;;;;;;;0.60;0.60;;;;;;;8.79;87.48;95216.13;4364082;32;20200;-56
2022/11/24 10:58:32;;;;;;;1.43;0.43;;;;;;;8.86;88.01;95221.84;4373917;32;20276;-58
2022/11/24 11:01:17;;;;;;;0.67;0.67;;;;;;;8.70;88.98;95212.53;4341703;32;20193;-55
2022/11/24 11:03:52;;;;;;;0.10;0.10;;;;;;;8.52;91.38;95214.06;4366485;32;20284;-58
2022/11/24 11:06:31;;;;;;;0.40;0.40;;;;;;;8.42;90.89;95213.41;4331627;32;20204;-59
2022/11/24 11:09:08;;;;;;;0.00;0.00;;;;;;;8.57;91.76;95219.28;4311975;32;20328;-58
2022/11/24 11:11:38;;;;;;;4.43;0.40;;;;;;;8.66;92.86;95219.47;4352139;32;20390;-58
2022/11/24 11:14:07;;;;;;;2.63;0.40;;;;;;;8.58;92.09;95210.28;4362562;32;20318;-58
2022/11/24 11:16:38;;;;;;;0.77;0.70;;;;;;;8.58;91.97;95217.44;4369728;32;20293;-58
2022/11/24 11:19:24;;;;;;;0.03;0.03;;;;;;;8.49;92.63;95216.50;4323550;32;20380;-58
2022/11/24 11:22:00;;;;;;;0.63;0.63;;;;;;;8.50;91.89;95218.06;4382606;32;20338;-58
2022/11/24 11:24:27;;;;;;;0.27;0.27;;;;;;;8.24;92.31;95215.69;4368382;32;20276;-58
2022/11/24 11:27:19;;;;;;;0.50;0.50;;;;;;;8.39;92.89;95206.81;4352939;32;20287;-59
2022/11/24 11:29:47;;;;;;;0.20;0.20;;;;;;;8.28;93.36;95211.41;4341601;32;20351;-58
2022/11/24 11:32:32;;;;;;;0.20;0.20;;;;;;;8.16;93.96;95221.56;4348031;32;20294;-58
2022/11/24 11:34:59;;;;;;;0.77;0.53;;;;;;;8.21;93.43;95216.25;4355998;32;20292;-57
2022/11/24 11:37:29;;;;;;;0.13;0.13;;;;;;;8.37;93.80;95226.66;4366188;32;20321;-58
2022/11/24 11:39:57;;;;;;;0.03;0.03;;;;;;;8.42;92.56;95226.62;4374379;32;20291;-58
2022/11/24 11:42:33;;;;;;;0.67;0.67;;;;;;;8.46;93.68;95228.44;4314505;32;20290;-58
2022/11/24 11:45:14;;;;;;;0.20;0.20;;;;;;;8.46;92.82;95225.00;4345612;32;20300;-57
2022/11/24 11:48:01;;;;;;;0.67;0.67;;;;;;;8.33;93.62;95228.28;4374446;32;20356;-57
2022/11/24 11:51:06;;;;;;;0.00;0.00;;;;;;;8.63;93.07;95227.19;4356469;32;20274;-58
2022/11/24 11:54:06;;;;;;;1.17;1.07;;;;;;;8.50;93.55;95229.44;4345427;32;20279;-58
2022/11/24 11:56:39;;;;;;;0.17;0.17;;;;;;;8.60;93.65;95233.81;4348554;32;20363;-58
2022/11/24 11:59:19;;;;;;;0.33;0.33;;;;;;;8.43;94.68;95228.19;4338298;32;20326;-58